(°C)
28°
26°
24°
22°
20°
19°
18°
(°C)
25°
24°
22°
20°
18°
17°
16°
ENE
ENE
NE
NE
NE
NE
ENE
(km/h)
12-18
11-18
10-19
9-18
8-17
8-15
7-17
(mm)
0
0
0
0
0
0
0
(%)
0
0
0
0
0
0
0

Elevazione del sole

/ 12.6°
sun-icon
UV 6
05:54
21:00
Gibbosa crescente (158°)
20:48
02:48

METAR per Bordenau (ETNW)

Ora Condizioni Temperatura/
Punto di rugiada
Vento Visibilità Meteo Nuvole Pressione Cambiamento Grezzo
VFR 29°C / 9°C 100º 7kt >10km - Few Clouds 5000ft
Scattered Clouds 35000ft
1024 - ETNW 101620Z 10007KT 9999 FEW050 SCT350 29/09 Q1024 BLU+
VFR 29°C / 9°C 120º 8kt >10km - Few Clouds 5000ft
Scattered Clouds 35000ft
1024 - ETNW 101520Z 12008KT 9999 FEW050 SCT350 29/09 Q1024 BLU+FCST CNL
VFR 29°C / 8°C 140º 6kt >10km - Few Clouds 5000ft
Scattered Clouds 39000ft
1025 - ETNW 101420Z 14006KT 9999 FEW050 SCT390 29/08 Q1025 BLU+BLU+
VFR 28°C / 9°C 160º 7kt >10km - Scattered Clouds 39000ft 1025 - ETNW 101320Z 16007KT 9999 SCT390 28/09 Q1025 BLU+BLU+
VFR 28°C / 9°C 100º 6kt >10km - Few Clouds 6500ft
Broken Clouds 39000ft
1026 - ETNW 101220Z 10006KT 9999 FEW065 BKN390 28/09 Q1026 BLU+BLU+
VFR 28°C / 10°C 80º 7kt >10km - Few Clouds 6500ft
Broken Clouds 39000ft
1026 - ETNW 101120Z 08007KT 9999 FEW065 BKN390 28/10 Q1026 BLU+BLU+
VFR 27°C / 10°C 90º 7kt >10km - Few Clouds 6500ft
Broken Clouds 40000ft
1027 - ETNW 101020Z 09007KT 9999 FEW065 BKN400 27/10 Q1027 BLU+BLU+
VFR 25°C / 12°C 100º 5kt >10km - Few Clouds 33000ft
Broken Clouds 40000ft
1027 - ETNW 100920Z 10005KT 9999 FEW330 BKN400 25/12 Q1027 BLU+BLU+
VFR 23°C / 12°C 90º 1kt >10km - Few Clouds 33000ft
Broken Clouds 40000ft
1027 - ETNW 100820Z 09001KT 9999 FEW330 BKN400 23/12 Q1027 BLU+BLU+
VFR 22°C / 12°C 100º 6kt >10km - Broken Clouds 33000ft 1027 - ETNW 100802Z 10006KT 9999 BKN330 22/12 Q1027 BLU+BLU+
VFR 19°C / 12°C 80º 5kt >10km - Broken Clouds 33000ft 1028 - ETNW 100720Z 08005KT 9999 BKN330 19/12 Q1028 BLU+BLU+
VFR 17°C / 12°C 80º 6kt >10km - Broken Clouds 36000ft 1027 - ETNW 100620Z 08006KT 9999 BKN360 17/12 Q1027 BLU+BLU+
VFR 15°C / 13°C 80º 4kt >10km - Broken Clouds 36000ft 1027 - ETNW 100520Z 08004KT 9999 BKN360 15/13 Q1027 BLU+BLU+
VFR 13°C / 12°C variable 0kt >10km - Few Clouds 15000ft
Broken Clouds 38000ft
1027 - ETNW 100420Z 00000KT 9999 FEW150 BKN380 13/12 Q1027 BLU+BLU+
VFR 13°C / 12°C 60º 3kt >10km - Few Clouds 15000ft
Scattered Clouds 35000ft
1027 - ETNW 100320Z 06003KT 9999 FEW150 SCT350 13/12 Q1027 BLU+
VFR 13°C / 12°C 40º 3kt >10km - Few Clouds 30000ft 1027 - ETNW 100220Z 04003KT 9999 FEW300 13/12 Q1027 BLU+
VFR 15°C / 12°C 70º 1kt >10km - Few Clouds 30000ft 1027 - ETNW 100120Z 07001KT 9999 FEW300 15/12 Q1027 BLU+
VFR 16°C / 12°C 110º 1kt >10km - Few Clouds 30000ft 1027 - ETNW 100020Z 11001KT 9999 FEW300 16/12 Q1027 BLU+
VFR 17°C / 11°C 60º 6kt >10km - Few Clouds 30000ft 1027 - ETNW 092320Z 06006KT 9999 FEW300 17/11 Q1027 BLU+
VFR 19°C / 11°C 50º 6kt >10km - Few Clouds 30000ft 1027 - ETNW 092220Z 05006KT 9999 FEW300 19/11 Q1027 BLU+
VFR 19°C / 12°C 30º 6kt >10km - Few Clouds 30000ft 1027 - ETNW 092120Z 03006KT 9999 FEW300 19/12 Q1027 BLU+
VFR 21°C / 11°C 30º 5kt >10km - Few Clouds 30000ft 1027 - ETNW 092020Z 03005KT 9999 FEW300 21/11 Q1027 BLU+
VFR 23°C / 12°C 20º 6kt >10km - Few Clouds 30000ft 1027 - ETNW 091920Z 02006KT 9999 FEW300 23/12 Q1027 BLU+
VFR 25°C / 10°C 30º 7kt >10km - Few Clouds 31000ft 1026 - ETNW 091820Z 03007KT 9999 FEW310 25/10 Q1026 BLU+

VFR

29°C / 9°C

[Più]
Vento 100º 7kt
Visibilità >10km
Meteo -
Nuvole Few Clouds 5000ft
Scattered Clouds 35000ft
Pressione 1024
Cambiamento -
Grezzo ETNW 101620Z 10007KT 9999 FEW050 SCT350 29/09 Q1024 BLU+

VFR

29°C / 9°C

[Più]
Vento 120º 8kt
Visibilità >10km
Meteo -
Nuvole Few Clouds 5000ft
Scattered Clouds 35000ft
Pressione 1024
Cambiamento -
Grezzo ETNW 101520Z 12008KT 9999 FEW050 SCT350 29/09 Q1024 BLU+FCST CNL

VFR

29°C / 8°C

[Più]
Vento 140º 6kt
Visibilità >10km
Meteo -
Nuvole Few Clouds 5000ft
Scattered Clouds 39000ft
Pressione 1025
Cambiamento -
Grezzo ETNW 101420Z 14006KT 9999 FEW050 SCT390 29/08 Q1025 BLU+BLU+

VFR

28°C / 9°C

[Più]
Vento 160º 7kt
Visibilità >10km
Meteo -
Nuvole Scattered Clouds 39000ft
Pressione 1025
Cambiamento -
Grezzo ETNW 101320Z 16007KT 9999 SCT390 28/09 Q1025 BLU+BLU+

VFR

28°C / 9°C

[Più]
Vento 100º 6kt
Visibilità >10km
Meteo -
Nuvole Few Clouds 6500ft
Broken Clouds 39000ft
Pressione 1026
Cambiamento -
Grezzo ETNW 101220Z 10006KT 9999 FEW065 BKN390 28/09 Q1026 BLU+BLU+

VFR

28°C / 10°C

[Più]
Vento 80º 7kt
Visibilità >10km
Meteo -
Nuvole Few Clouds 6500ft
Broken Clouds 39000ft
Pressione 1026
Cambiamento -
Grezzo ETNW 101120Z 08007KT 9999 FEW065 BKN390 28/10 Q1026 BLU+BLU+

VFR

27°C / 10°C

[Più]
Vento 90º 7kt
Visibilità >10km
Meteo -
Nuvole Few Clouds 6500ft
Broken Clouds 40000ft
Pressione 1027
Cambiamento -
Grezzo ETNW 101020Z 09007KT 9999 FEW065 BKN400 27/10 Q1027 BLU+BLU+

VFR

25°C / 12°C

[Più]
Vento 100º 5kt
Visibilità >10km
Meteo -
Nuvole Few Clouds 33000ft
Broken Clouds 40000ft
Pressione 1027
Cambiamento -
Grezzo ETNW 100920Z 10005KT 9999 FEW330 BKN400 25/12 Q1027 BLU+BLU+

VFR

23°C / 12°C

[Più]
Vento 90º 1kt
Visibilità >10km
Meteo -
Nuvole Few Clouds 33000ft
Broken Clouds 40000ft
Pressione 1027
Cambiamento -
Grezzo ETNW 100820Z 09001KT 9999 FEW330 BKN400 23/12 Q1027 BLU+BLU+

VFR

22°C / 12°C

[Più]
Vento 100º 6kt
Visibilità >10km
Meteo -
Nuvole Broken Clouds 33000ft
Pressione 1027
Cambiamento -
Grezzo ETNW 100802Z 10006KT 9999 BKN330 22/12 Q1027 BLU+BLU+

VFR

19°C / 12°C

[Più]
Vento 80º 5kt
Visibilità >10km
Meteo -
Nuvole Broken Clouds 33000ft
Pressione 1028
Cambiamento -
Grezzo ETNW 100720Z 08005KT 9999 BKN330 19/12 Q1028 BLU+BLU+

VFR

17°C / 12°C

[Più]
Vento 80º 6kt
Visibilità >10km
Meteo -
Nuvole Broken Clouds 36000ft
Pressione 1027
Cambiamento -
Grezzo ETNW 100620Z 08006KT 9999 BKN360 17/12 Q1027 BLU+BLU+

VFR

15°C / 13°C

[Più]
Vento 80º 4kt
Visibilità >10km
Meteo -
Nuvole Broken Clouds 36000ft
Pressione 1027
Cambiamento -
Grezzo ETNW 100520Z 08004KT 9999 BKN360 15/13 Q1027 BLU+BLU+

VFR

13°C / 12°C

[Più]
Vento variable 0kt
Visibilità >10km
Meteo -
Nuvole Few Clouds 15000ft
Broken Clouds 38000ft
Pressione 1027
Cambiamento -
Grezzo ETNW 100420Z 00000KT 9999 FEW150 BKN380 13/12 Q1027 BLU+BLU+

VFR

13°C / 12°C

[Più]
Vento 60º 3kt
Visibilità >10km
Meteo -
Nuvole Few Clouds 15000ft
Scattered Clouds 35000ft
Pressione 1027
Cambiamento -
Grezzo ETNW 100320Z 06003KT 9999 FEW150 SCT350 13/12 Q1027 BLU+

VFR

13°C / 12°C

[Più]
Vento 40º 3kt
Visibilità >10km
Meteo -
Nuvole Few Clouds 30000ft
Pressione 1027
Cambiamento -
Grezzo ETNW 100220Z 04003KT 9999 FEW300 13/12 Q1027 BLU+

VFR

15°C / 12°C

[Più]
Vento 70º 1kt
Visibilità >10km
Meteo -
Nuvole Few Clouds 30000ft
Pressione 1027
Cambiamento -
Grezzo ETNW 100120Z 07001KT 9999 FEW300 15/12 Q1027 BLU+

VFR

16°C / 12°C

[Più]
Vento 110º 1kt
Visibilità >10km
Meteo -
Nuvole Few Clouds 30000ft
Pressione 1027
Cambiamento -
Grezzo ETNW 100020Z 11001KT 9999 FEW300 16/12 Q1027 BLU+

VFR

17°C / 11°C

[Più]
Vento 60º 6kt
Visibilità >10km
Meteo -
Nuvole Few Clouds 30000ft
Pressione 1027
Cambiamento -
Grezzo ETNW 092320Z 06006KT 9999 FEW300 17/11 Q1027 BLU+

VFR

19°C / 11°C

[Più]
Vento 50º 6kt
Visibilità >10km
Meteo -
Nuvole Few Clouds 30000ft
Pressione 1027
Cambiamento -
Grezzo ETNW 092220Z 05006KT 9999 FEW300 19/11 Q1027 BLU+

VFR

19°C / 12°C

[Più]
Vento 30º 6kt
Visibilità >10km
Meteo -
Nuvole Few Clouds 30000ft
Pressione 1027
Cambiamento -
Grezzo ETNW 092120Z 03006KT 9999 FEW300 19/12 Q1027 BLU+

VFR

21°C / 11°C

[Più]
Vento 30º 5kt
Visibilità >10km
Meteo -
Nuvole Few Clouds 30000ft
Pressione 1027
Cambiamento -
Grezzo ETNW 092020Z 03005KT 9999 FEW300 21/11 Q1027 BLU+

VFR

23°C / 12°C

[Più]
Vento 20º 6kt
Visibilità >10km
Meteo -
Nuvole Few Clouds 30000ft
Pressione 1027
Cambiamento -
Grezzo ETNW 091920Z 02006KT 9999 FEW300 23/12 Q1027 BLU+

VFR

25°C / 10°C

[Più]
Vento 30º 7kt
Visibilità >10km
Meteo -
Nuvole Few Clouds 31000ft
Pressione 1026
Cambiamento -
Grezzo ETNW 091820Z 03007KT 9999 FEW310 25/10 Q1026 BLU+

TAF per Bordenau (ETNW)

From till


From till Wind 70º 5kt. Visibility 10km or more. Scattered Clouds 35000ft.

Grezzo: TAF ETNW 101606Z 1017/1117 07005KT 9999 NSW SCT350 BY ETGL

rainNOW: Pioggia nowcast per Bordenau e dintorni (raggio di 25 km)

0.0 mm
0.0 mm
0.0 mm
0.0 mm
0.0 mm
0.0 mm
0.0 mm
0.0 mm
0.0 mm
0.0 mm
0.0 mm
0.0 mm

Radar per Bordenau

Pioviggine
Lieve
Moderato
Forte
Molto forte
Grandine

Il segnaposto è situato a Bordenau. Questa animazione mostra il radar delle precipitazioni per l'ultima ora, nonché una previsione 2h. Una pioviggine o una leggera caduta di neve potrebbero essere invisibili per il radar. L'intensità delle precipitazioni è codificata a colori, dal blu chiaro all'arancione.
Copyright 2022 Deutscher Wetterdienst / meteoblue.

Tempo in atto per Bordenau: immagine satellitare e pioggia, Germania

Il segnaposto è situato a Bordenau. [Più]

L'immagine satellitare in tempo reale combina la luce visibile durante il giorno con la radiazione infrarossa durante la notte. Di notte l'immagine non è scura poiché i raggi infrarossi possono rilevare differenze di temperatura. Purtroppo, le nuvole basse e la nebbia sono difficili da distinguere dalla temperatura del suolo e possono pertanto essere quasi invisibili durante la notte. Le immagini satellitari Meteosat per l'Europa vengono aggiornate in tempo reale ogni 5 minuti. Le immagini GOES-16 / GOES-17 (Nord e Sud America) e Himawari (Asia) vengono aggiornate ogni 10 minuti.

Le precipitazioni sono stimate da radar e satellite. I calcoli delle precipitazioni dai satelliti sono meno accurate di notte che durante il giorno. Le croci arancioni identificano i fulmini caduti (in Europa).

Copyright 2022 EUMETSAT / meteoblue. Fulminazioni fornite da nowcast.

Tornare su